Time,TemperatureF,DewpointF,PressureIn,WindDirection,WindDirectionDegrees,WindSpeedMPH,WindSpeedGustMPH,Humidity,HourlyPrecipIn,Conditions,Clouds,dailyrainin,SoftwareType,DateUTC
2013-02-04 00:10:00,27.1,19.0,29.76,West,276,0.0,0.0,72,0.00,,,0.00,weatherlink.com 1.10,2013-02-04 05:10:00,
2013-02-04 00:25:00,26.8,18.0,29.76,WNW,293,0.0,0.0,70,0.00,,,0.00,weatherlink.com 1.10,2013-02-04 05:25:00,
2013-02-04 00:41:00,26.7,18.0,29.75,NW,319,0.0,0.0,69,0.00,,,0.00,weatherlink.com 1.10,2013-02-04 05:41:00,
2013-02-04 00:55:00,26.6,18.0,29.75,WNW,297,0.0,0.0,69,0.00,,,0.00,weatherlink.com 1.10,2013-02-04 05:55:00,
2013-02-04 01:10:00,26.6,18.0,29.75,West,281,0.0,0.0,71,0.00,,,0.00,weatherlink.com 1.10,2013-02-04 06:10:00,
2013-02-04 01:25:00,26.1,18.0,29.75,SW,235,0.0,0.0,71,0.00,,,0.00,weatherlink.com 1.10,2013-02-04 06:25:00,
2013-02-04 01:42:00,25.9,18.0,29.75,WNW,297,0.0,0.0,73,0.00,,,0.00,weatherlink.com 1.10,2013-02-04 06:42:00,
2013-02-04 01:55:00,25.9,18.0,29.75,WNW,288,0.0,0.0,73,0.00,,,0.00,weatherlink.com 1.10,2013-02-04 06:55:00,
2013-02-04 02:10:00,25.9,18.0,29.76,West,277,0.0,0.0,73,0.00,,,0.00,weatherlink.com 1.10,2013-02-04 07:10:00,
2013-02-04 02:25:00,24.2,16.0,29.76,WNW,297,0.0,0.0,72,0.00,,,0.00,weatherlink.com 1.10,2013-02-04 07:25:00,
2013-02-04 02:42:00,-999.0,-99.9,29.75,North,-999,-999.0,-999.0,-999,0.00,,,0.00,weatherlink.com 1.10,2013-02-04 07:42:00,
2013-02-04 02:55:00,-999.0,-99.9,29.75,North,-999,-999.0,-999.0,-999,0.00,,,0.00,weatherlink.com 1.10,2013-02-04 07:55:00,
2013-02-04 03:10:00,-999.0,-99.9,29.75,North,-999,-999.0,-999.0,-999,0.00,,,0.00,weatherlink.com 1.10,2013-02-04 08:10:00,
2013-02-04 03:25:00,-999.0,-99.9,29.75,North,-999,-999.0,-999.0,-999,0.00,,,0.00,weatherlink.com 1.10,2013-02-04 08:25:00,
2013-02-04 03:43:00,-999.0,-99.9,29.75,North,-999,-999.0,-999.0,-999,0.00,,,0.00,weatherlink.com 1.10,2013-02-04 08:43:00,
2013-02-04 03:55:00,-999.0,-99.9,29.76,North,-999,-999.0,-999.0,-999,0.00,,,0.00,weatherlink.com 1.10,2013-02-04 08:55:00,
2013-02-04 04:10:00,-999.0,-99.9,29.76,North,-999,-999.0,-999.0,-999,0.00,,,0.00,weatherlink.com 1.10,2013-02-04 09:10:00,
2013-02-04 04:26:00,-999.0,-99.9,29.76,North,-999,-999.0,-999.0,-999,0.00,,,0.00,weatherlink.com 1.10,2013-02-04 09:26:00,
2013-02-04 04:41:00,-999.0,-99.9,29.77,North,-999,-999.0,-999.0,-999,0.00,,,0.00,weatherlink.com 1.10,2013-02-04 09:41:00,
2013-02-04 04:56:00,-999.0,-99.9,29.77,North,-999,-999.0,-999.0,-999,0.00,,,0.00,weatherlink.com 1.10,2013-02-04 09:56:00,
2013-02-04 05:11:00,-999.0,-99.9,29.78,North,-999,-999.0,-999.0,-999,0.00,,,0.00,weatherlink.com 1.10,2013-02-04 10:11:00,
2013-02-04 05:26:00,-999.0,-99.9,29.78,North,-999,-999.0,-999.0,-999,0.00,,,0.00,weatherlink.com 1.10,2013-02-04 10:26:00,
2013-02-04 05:41:00,-999.0,-99.9,29.79,North,-999,-999.0,-999.0,-999,0.00,,,0.00,weatherlink.com 1.10,2013-02-04 10:41:00,
2013-02-04 05:56:00,-999.0,-99.9,29.79,North,-999,-999.0,-999.0,-999,0.00,,,0.00,weatherlink.com 1.10,2013-02-04 10:56:00,
2013-02-04 06:11:00,-999.0,-99.9,29.80,North,-999,-999.0,-999.0,-999,0.00,,,0.00,weatherlink.com 1.10,2013-02-04 11:11:00,
2013-02-04 06:26:00,-999.0,-99.9,29.80,North,-999,-999.0,-999.0,-999,0.00,,,0.00,weatherlink.com 1.10,2013-02-04 11:26:00,
2013-02-04 06:41:00,-999.0,-99.9,29.81,North,-999,-999.0,-999.0,-999,0.00,,,0.00,weatherlink.com 1.10,2013-02-04 11:41:00,
2013-02-04 06:56:00,-999.0,-99.9,29.82,North,-999,-999.0,-999.0,-999,0.00,,,0.00,weatherlink.com 1.10,2013-02-04 11:56:00,
2013-02-04 07:11:00,-999.0,-99.9,29.82,North,-999,-999.0,-999.0,-999,0.00,,,0.00,weatherlink.com 1.10,2013-02-04 12:11:00,
2013-02-04 07:26:00,-999.0,-99.9,29.83,North,-999,-999.0,-999.0,-999,0.00,,,0.00,weatherlink.com 1.10,2013-02-04 12:26:00,
2013-02-04 07:41:00,-999.0,-99.9,29.84,North,-999,-999.0,-999.0,-999,0.00,,,0.00,weatherlink.com 1.10,2013-02-04 12:41:00,
2013-02-04 07:56:00,24.9,17.0,29.85,West,274,0.0,0.0,71,0.00,,,0.00,weatherlink.com 1.10,2013-02-04 12:56:00,
2013-02-04 08:12:00,25.3,17.0,29.85,NNW,338,0.0,0.0,70,0.00,,,0.00,weatherlink.com 1.10,2013-02-04 13:12:00,
2013-02-04 08:27:00,25.6,17.0,29.85,West,260,0.0,0.0,71,0.00,,,0.00,weatherlink.com 1.10,2013-02-04 13:27:00,
2013-02-04 08:42:00,25.8,17.0,29.85,WNW,285,0.0,0.0,70,0.00,,,0.00,weatherlink.com 1.10,2013-02-04 13:42:00,
2013-02-04 08:57:00,26.3,17.0,29.86,WNW,299,0.0,0.0,69,0.00,,,0.00,weatherlink.com 1.10,2013-02-04 13:57:00,
2013-02-04 09:12:00,26.7,16.0,29.86,WSW,255,0.0,0.0,65,0.00,,,0.00,weatherlink.com 1.10,2013-02-04 14:12:00,
2013-02-04 09:27:00,27.5,16.0,29.86,West,280,0.0,0.0,63,0.00,,,0.00,weatherlink.com 1.10,2013-02-04 14:27:00,
2013-02-04 09:42:00,27.8,15.0,29.86,WNW,288,0.0,0.0,59,0.00,,,0.00,weatherlink.com 1.10,2013-02-04 14:42:00,
2013-02-04 09:57:00,28.1,15.0,29.86,NW,305,0.0,0.0,59,0.00,,,0.00,weatherlink.com 1.10,2013-02-04 14:57:00,
2013-02-04 10:12:00,28.6,15.0,29.86,NW,304,0.0,0.0,57,0.00,,,0.00,weatherlink.com 1.10,2013-02-04 15:12:00,
2013-02-04 10:27:00,29.0,15.0,29.87,West,259,0.0,0.0,55,0.00,,,0.00,weatherlink.com 1.10,2013-02-04 15:27:00,
2013-02-04 10:42:00,29.1,14.0,29.87,WNW,302,0.0,0.0,53,0.00,,,0.00,weatherlink.com 1.10,2013-02-04 15:42:00,
2013-02-04 10:57:00,29.7,15.0,29.86,NNW,340,0.0,0.0,54,0.00,,,0.00,weatherlink.com 1.10,2013-02-04 15:57:00,
2013-02-04 11:12:00,29.6,14.0,29.86,NNW,327,0.0,0.0,52,0.00,,,0.00,weatherlink.com 1.10,2013-02-04 16:12:00,
2013-02-04 11:27:00,29.3,14.0,29.86,West,274,0.0,0.0,53,0.00,,,0.00,weatherlink.com 1.10,2013-02-04 16:27:00,
2013-02-04 11:42:00,29.2,13.0,29.86,WNW,293,0.0,0.0,50,0.00,,,0.00,weatherlink.com 1.10,2013-02-04 16:42:00,
2013-02-04 11:57:00,29.5,14.0,29.85,West,276,0.0,0.0,52,0.00,,,0.00,weatherlink.com 1.10,2013-02-04 16:57:00,
2013-02-04 12:12:00,30.0,15.0,29.85,WNW,302,0.0,0.0,53,0.00,,,0.00,weatherlink.com 1.10,2013-02-04 17:12:00,
2013-02-04 12:27:00,30.1,15.0,29.84,NW,305,0.0,0.0,53,0.00,,,0.00,weatherlink.com 1.10,2013-02-04 17:27:00,
2013-02-04 12:42:00,30.8,13.0,29.84,NW,304,0.0,0.0,48,0.00,,,0.00,weatherlink.com 1.10,2013-02-04 17:42:00,
2013-02-04 12:57:00,30.9,14.0,29.84,WNW,297,0.0,0.0,49,0.00,,,0.00,weatherlink.com 1.10,2013-02-04 17:57:00,
2013-02-04 13:12:00,30.6,13.0,29.84,NNW,328,0.0,0.0,49,0.00,,,0.00,weatherlink.com 1.10,2013-02-04 18:12:00,
2013-02-04 13:27:00,31.2,13.0,29.84,NW,305,0.0,0.0,48,0.00,,,0.00,weatherlink.com 1.10,2013-02-04 18:27:00,
2013-02-04 13:42:00,30.0,14.0,29.84,West,271,0.0,0.0,52,0.00,,,0.00,weatherlink.com 1.10,2013-02-04 18:42:00,
2013-02-04 13:57:00,31.2,13.0,29.84,WNW,298,0.0,0.0,47,0.00,,,0.00,weatherlink.com 1.10,2013-02-04 18:57:00,
2013-02-04 14:12:00,31.4,14.0,29.84,NW,321,0.0,0.0,48,0.00,,,0.00,weatherlink.com 1.10,2013-02-04 19:12:00,
2013-02-04 14:27:00,30.3,14.0,29.85,NW,307,0.0,0.0,50,0.00,,,0.00,weatherlink.com 1.10,2013-02-04 19:27:00,
2013-02-04 14:42:00,30.9,12.0,29.84,WNW,285,0.0,0.0,46,0.00,,,0.00,weatherlink.com 1.10,2013-02-04 19:42:00,
2013-02-04 14:57:00,31.5,15.0,29.85,WNW,300,0.0,0.0,50,0.00,,,0.00,weatherlink.com 1.10,2013-02-04 19:57:00,
2013-02-04 15:12:00,31.4,13.0,29.85,WNW,294,0.0,0.0,46,0.00,,,0.00,weatherlink.com 1.10,2013-02-04 20:12:00,
2013-02-04 15:27:00,30.7,12.0,29.84,NW,314,0.0,0.0,46,0.00,,,0.00,weatherlink.com 1.10,2013-02-04 20:27:00,
2013-02-04 15:42:00,30.8,13.0,29.85,WNW,288,0.0,0.0,47,0.00,,,0.00,weatherlink.com 1.10,2013-02-04 20:42:00,
2013-02-04 15:57:00,30.4,12.0,29.84,WNW,300,0.0,0.0,47,0.00,,,0.00,weatherlink.com 1.10,2013-02-04 20:57:00,
2013-02-04 16:12:00,30.4,13.0,29.84,WNW,298,0.0,0.0,48,0.00,,,0.00,weatherlink.com 1.10,2013-02-04 21:12:00,
2013-02-04 16:27:00,29.9,12.0,29.84,NW,304,0.0,0.0,47,0.00,,,0.00,weatherlink.com 1.10,2013-02-04 21:27:00,
2013-02-04 16:42:00,29.9,13.0,29.85,NW,304,0.0,0.0,49,0.00,,,0.00,weatherlink.com 1.10,2013-02-04 21:42:00,
2013-02-04 16:57:00,29.8,12.0,29.85,NW,321,0.0,0.0,48,0.00,,,0.00,weatherlink.com 1.10,2013-02-04 21:57:00,
2013-02-04 17:12:00,29.6,12.0,29.86,West,271,0.0,0.0,48,0.00,,,0.00,weatherlink.com 1.10,2013-02-04 22:12:00,
2013-02-04 17:27:00,29.9,13.0,29.87,WNW,283,0.0,0.0,49,0.00,,,0.00,weatherlink.com 1.10,2013-02-04 22:27:00,
2013-02-04 17:42:00,29.9,12.0,29.88,West,277,0.0,0.0,48,0.00,,,0.00,weatherlink.com 1.10,2013-02-04 22:42:00,
2013-02-04 17:57:00,29.6,11.0,29.88,WNW,300,0.0,0.0,46,0.00,,,0.00,weatherlink.com 1.10,2013-02-04 22:57:00,
2013-02-04 18:12:00,29.7,13.0,29.89,NW,317,0.0,0.0,49,0.00,,,0.00,weatherlink.com 1.10,2013-02-04 23:12:00,
2013-02-04 18:27:00,29.8,13.0,29.89,NNW,345,0.0,0.0,49,0.00,,,0.00,weatherlink.com 1.10,2013-02-04 23:27:00,
2013-02-04 18:42:00,29.8,13.0,29.90,West,277,0.0,0.0,49,0.00,,,0.00,weatherlink.com 1.10,2013-02-04 23:42:00,
2013-02-04 18:57:00,29.4,11.0,29.90,West,269,0.0,0.0,46,0.00,,,0.00,weatherlink.com 1.10,2013-02-04 23:57:00,
2013-02-04 19:12:00,29.3,11.0,29.91,WNW,298,0.0,0.0,47,0.00,,,0.00,weatherlink.com 1.10,2013-02-05 00:12:00,
2013-02-04 19:27:00,29.4,12.0,29.91,WNW,302,0.0,0.0,48,0.00,,,0.00,weatherlink.com 1.10,2013-02-05 00:27:00,
2013-02-04 19:42:00,29.2,12.0,29.91,WNW,283,0.0,0.0,48,0.00,,,0.00,weatherlink.com 1.10,2013-02-05 00:42:00,
2013-02-04 19:57:00,29.1,12.0,29.93,WNW,297,0.0,0.0,48,0.00,,,0.00,weatherlink.com 1.10,2013-02-05 00:57:00,
2013-02-04 20:13:00,28.9,12.0,29.93,NW,312,0.0,0.0,49,0.00,,,0.00,weatherlink.com 1.10,2013-02-05 01:13:00,
2013-02-04 20:28:00,28.9,12.0,29.93,NW,315,0.0,0.0,49,0.00,,,0.00,weatherlink.com 1.10,2013-02-05 01:28:00,
2013-02-04 20:43:00,28.8,11.0,29.94,WNW,288,0.0,0.0,48,0.00,,,0.00,weatherlink.com 1.10,2013-02-05 01:43:00,
2013-02-04 20:58:00,28.6,11.0,29.94,WNW,294,0.0,0.0,47,0.00,,,0.00,weatherlink.com 1.10,2013-02-05 01:58:00,
2013-02-04 21:13:00,28.5,11.0,29.94,WNW,295,0.0,0.0,48,0.00,,,0.00,weatherlink.com 1.10,2013-02-05 02:13:00,
2013-02-04 21:28:00,28.3,11.0,29.95,WNW,302,0.0,0.0,48,0.00,,,0.00,weatherlink.com 1.10,2013-02-05 02:28:00,
2013-02-04 21:43:00,28.0,10.0,29.95,NW,307,0.0,0.0,47,0.00,,,0.00,weatherlink.com 1.10,2013-02-05 02:43:00,
2013-02-04 21:58:00,27.8,11.0,29.95,East,92,0.0,0.0,49,0.00,,,0.00,weatherlink.com 1.10,2013-02-05 02:58:00,
2013-02-04 22:13:00,27.7,10.0,29.95,NW,308,0.0,0.0,48,0.00,,,0.00,weatherlink.com 1.10,2013-02-05 03:13:00,
2013-02-04 22:28:00,27.5,10.0,29.95,WNW,295,0.0,0.0,47,0.00,,,0.00,weatherlink.com 1.10,2013-02-05 03:28:00,
2013-02-04 22:43:00,27.5,10.0,29.95,WNW,295,0.0,0.0,49,0.00,,,0.00,weatherlink.com 1.10,2013-02-05 03:43:00,
2013-02-04 22:58:00,27.5,10.0,29.95,WNW,282,0.0,0.0,49,0.00,,,0.00,weatherlink.com 1.10,2013-02-05 03:58:00,
2013-02-04 23:13:00,27.4,12.0,29.95,NW,316,0.0,0.0,52,0.00,,,0.00,weatherlink.com 1.10,2013-02-05 04:13:00,
2013-02-04 23:28:00,27.4,11.0,29.95,WNW,295,0.0,0.0,51,0.00,,,0.00,weatherlink.com 1.10,2013-02-05 04:28:00,
2013-02-04 23:43:00,27.3,11.0,29.96,NW,318,0.0,0.0,51,0.00,,,0.00,weatherlink.com 1.10,2013-02-05 04:43:00,
2013-02-04 23:58:00,27.5,12.0,29.96,WNW,288,0.0,0.0,52,0.00,,,0.00,weatherlink.com 1.10,2013-02-05 04:58:00,